Time;durP1;ratioP1;P1;durP2;ratioP2;P2;SDS_P1;SDS_P2;PMS_P1;PMS_P2;Temp;Humidity;BMP_temperature;BMP_pressure;BME280_temperature;BME280_humidity;BME280_pressure;Samples;Min_cycle;Max_cycle;Signal;HPM_P1;HPM_P2
2022/03/29 00:00:33;;;;;;;29.67;18.35;;;;;;;;;;4916642;29;20909;-75
2022/03/29 00:02:59;;;;;;;30.88;19.98;;;;;;;;;;4916877;29;20231;-76
2022/03/29 00:05:25;;;;;;;28.58;18.20;;;;;;;;;;4916868;29;20200;-75
2022/03/29 00:07:51;;;;;;;38.50;20.10;;;;;;;;;;4917046;29;20195;-76
2022/03/29 00:10:17;;;;;;;30.73;19.23;;;;;;;;;;4916473;29;20637;-78
2022/03/29 00:12:43;;;;;;;39.13;17.17;;;;;;;;;;4916994;29;20435;-76
2022/03/29 00:15:10;;;;;;;40.72;19.10;;;;;;;;;;4917062;29;20735;-76
2022/03/29 00:17:36;;;;;;;37.95;19.25;;;;;;;;;;4917058;29;20187;-75
2022/03/29 00:20:02;;;;;;;31.95;18.20;;;;;;;;;;4916972;29;20210;-75
2022/03/29 00:22:28;;;;;;;32.30;18.02;;;;;;;;;;4916420;29;20204;-78
2022/03/29 00:24:54;;;;;;;51.60;22.80;;;;;;;;;;4916663;29;20225;-76
2022/03/29 00:27:20;;;;;;;40.30;20.70;;;;;;;;;;4931354;29;20913;-78
2022/03/29 00:29:46;;;;;;;37.28;21.73;;;;;;;;;;4931167;29;20227;-75
2022/03/29 00:32:12;;;;;;;42.97;22.10;;;;;;;;;;4916302;29;20294;-77
2022/03/29 00:34:40;;;;;;;35.43;21.10;;;;;;;;;;4916873;29;20215;-77
2022/03/29 00:37:06;;;;;;;35.83;19.00;;;;;;;;;;4916551;29;20426;-77
2022/03/29 00:39:32;;;;;;;34.95;20.65;;;;;;;;;;4916496;29;20176;-73
2022/03/29 00:41:58;;;;;;;40.70;21.40;;;;;;;;;;4930730;29;20207;-76
2022/03/29 00:44:31;;;;;;;39.10;21.33;;;;;;;;;;4916590;29;20423;-77
2022/03/29 00:46:58;;;;;;;32.30;19.42;;;;;;;;;;4930995;29;20652;-74
2022/03/29 00:49:24;;;;;;;31.58;18.90;;;;;;;;;;4916436;29;20211;-77
2022/03/29 00:51:50;;;;;;;35.80;19.25;;;;;;;;;;4916119;29;20199;-77
2022/03/29 00:54:16;;;;;;;31.35;19.10;;;;;;;;;;4916521;29;20228;-77
2022/03/29 00:56:42;;;;;;;35.30;20.30;;;;;;;;;;4916591;29;20186;-77
2022/03/29 00:59:08;;;;;;;37.30;21.20;;;;;;;;;;4917853;29;20447;-74
2022/03/29 01:01:34;;;;;;;38.40;22.50;;;;;;;;;;4919657;29;20467;-74
2022/03/29 01:04:00;;;;;;;34.23;22.27;;;;;;;;;;4919942;29;20423;-76
2022/03/29 01:06:26;;;;;;;38.90;21.70;;;;;;;;;;4920144;29;20914;-75
2022/03/29 01:08:52;;;;;;;37.60;20.67;;;;;;;;;;4919958;29;20388;-77
2022/03/29 01:11:18;;;;;;;36.43;20.77;;;;;;;;;;4919653;29;20497;-77
2022/03/29 01:13:44;;;;;;;40.75;20.33;;;;;;;;;;4919843;29;20784;-75
2022/03/29 01:18:56;;;;;;;37.10;22.95;;;;;;;;;;4920090;29;20335;-77
2022/03/29 01:21:23;;;;;;;41.15;20.38;;;;;;;;;;4933906;29;20670;-74
2022/03/29 01:23:49;;;;;;;42.65;22.23;;;;;;;;;;4919559;29;20192;-76
2022/03/29 01:26:16;;;;;;;42.28;21.45;;;;;;;;;;4919479;29;20179;-76
2022/03/29 01:28:43;;;;;;;34.33;21.13;;;;;;;;;;4919958;29;20204;-77
2022/03/29 01:31:09;;;;;;;32.15;20.15;;;;;;;;;;4919167;29;20228;-75
2022/03/29 01:33:35;;;;;;;36.33;19.92;;;;;;;;;;4919475;29;20184;-77
2022/03/29 01:36:02;;;;;;;31.70;19.33;;;;;;;;;;4919420;29;20193;-74
2022/03/29 01:38:28;;;;;;;32.03;19.88;;;;;;;;;;4919529;29;20422;-75
2022/03/29 01:41:00;;;;;;;35.55;20.13;;;;;;;;;;4919157;29;20222;-75
2022/03/29 01:43:26;;;;;;;36.85;20.98;;;;;;;;;;4919432;29;20188;-76
2022/03/29 01:45:52;;;;;;;37.93;20.40;;;;;;;;;;4919328;29;20618;-75
2022/03/29 01:48:18;;;;;;;33.00;19.97;;;;;;;;;;4919058;29;20504;-77
2022/03/29 01:50:45;;;;;;;35.80;19.40;;;;;;;;;;4918781;29;20462;-76
2022/03/29 01:53:21;;;;;;;36.17;18.67;;;;;;;;;;4919175;29;20184;-77
2022/03/29 01:55:47;;;;;;;32.35;20.13;;;;;;;;;;4919204;29;20614;-76
2022/03/29 01:58:13;;;;;;;34.60;21.07;;;;;;;;;;4918808;29;20207;-78
2022/03/29 02:00:41;;;;;;;38.30;20.70;;;;;;;;;;4918591;29;20444;-75
2022/03/29 02:03:09;;;;;;;35.80;21.42;;;;;;;;;;4919066;29;20494;-76
2022/03/29 02:05:35;;;;;;;39.15;21.35;;;;;;;;;;4919293;29;20206;-75
2022/03/29 02:08:02;;;;;;;32.55;22.17;;;;;;;;;;4918999;29;20659;-75
2022/03/29 02:10:28;;;;;;;38.10;21.45;;;;;;;;;;4918233;29;20211;-76
2022/03/29 02:12:54;;;;;;;38.03;20.60;;;;;;;;;;4918803;29;20187;-75
2022/03/29 02:15:20;;;;;;;37.37;19.50;;;;;;;;;;4918601;29;20543;-78
2022/03/29 02:17:48;;;;;;;35.50;22.23;;;;;;;;;;4918784;29;20411;-77
2022/03/29 02:20:14;;;;;;;40.90;22.02;;;;;;;;;;4932882;29;20220;-74
2022/03/29 02:22:41;;;;;;;38.38;22.33;;;;;;;;;;4918654;29;20204;-78
2022/03/29 02:25:07;;;;;;;38.92;23.40;;;;;;;;;;4918866;29;20200;-77
2022/03/29 02:27:33;;;;;;;37.95;20.48;;;;;;;;;;4918550;29;20268;-75
2022/03/29 02:29:59;;;;;;;32.13;21.20;;;;;;;;;;4918533;29;20312;-74
2022/03/29 02:32:25;;;;;;;36.87;20.97;;;;;;;;;;4918107;29;20439;-76
2022/03/29 02:34:51;;;;;;;38.10;22.13;;;;;;;;;;4918432;29;20921;-77
2022/03/29 02:37:17;;;;;;;37.83;21.30;;;;;;;;;;4918308;29;20411;-76
2022/03/29 02:39:43;;;;;;;46.93;22.60;;;;;;;;;;4918402;29;20228;-76
2022/03/29 02:42:09;;;;;;;39.27;21.80;;;;;;;;;;4917888;29;20792;-77
2022/03/29 02:44:35;;;;;;;40.78;20.20;;;;;;;;;;4918183;29;20826;-76
2022/03/29 02:47:01;;;;;;;32.63;20.10;;;;;;;;;;4918201;29;20194;-76
2022/03/29 02:49:27;;;;;;;34.80;21.33;;;;;;;;;;4918075;29;20200;-76
2022/03/29 02:51:53;;;;;;;41.38;22.70;;;;;;;;;;4917689;29;20852;-76
2022/03/29 02:54:19;;;;;;;35.90;18.95;;;;;;;;;;4918048;29;20640;-75
2022/03/29 02:56:46;;;;;;;34.70;20.73;;;;;;;;;;4918101;29;20250;-74
2022/03/29 02:59:12;;;;;;;38.03;18.63;;;;;;;;;;4917927;29;20706;-78
2022/03/29 03:01:39;;;;;;;35.88;19.85;;;;;;;;;;4917800;29;20702;-74
2022/03/29 03:04:05;;;;;;;30.88;18.77;;;;;;;;;;4917923;29;20690;-76
2022/03/29 03:06:31;;;;;;;30.60;18.52;;;;;;;;;;4917987;29;20549;-73
2022/03/29 03:08:57;;;;;;;27.30;17.13;;;;;;;;;;4918013;29;20183;-75
2022/03/29 03:11:23;;;;;;;34.77;19.40;;;;;;;;;;4917746;29;20210;-75
2022/03/29 03:13:50;;;;;;;31.67;19.00;;;;;;;;;;4917915;29;20515;-78
2022/03/29 03:16:16;;;;;;;31.63;18.15;;;;;;;;;;4932144;29;20175;-74
2022/03/29 03:18:42;;;;;;;34.70;17.50;;;;;;;;;;4917716;29;20185;-76
2022/03/29 03:21:08;;;;;;;36.00;20.30;;;;;;;;;;4931391;29;20448;-77
2022/03/29 03:23:34;;;;;;;35.23;19.40;;;;;;;;;;4917564;29;20446;-77
2022/03/29 03:26:00;;;;;;;37.30;20.30;;;;;;;;;;4917480;29;20429;-76
2022/03/29 03:28:26;;;;;;;33.37;19.37;;;;;;;;;;4917683;29;20417;-75
2022/03/29 03:30:53;;;;;;;30.20;19.03;;;;;;;;;;4916942;29;20911;-74
2022/03/29 03:33:19;;;;;;;32.88;17.80;;;;;;;;;;4917571;29;20840;-77
2022/03/29 03:35:45;;;;;;;35.13;18.55;;;;;;;;;;4917629;29;20169;-76
2022/03/29 03:38:12;;;;;;;31.03;19.77;;;;;;;;;;4917576;29;20207;-78
2022/03/29 03:40:38;;;;;;;36.70;20.50;;;;;;;;;;4917065;29;20418;-77
2022/03/29 03:43:04;;;;;;;32.03;18.30;;;;;;;;;;4917147;29;20188;-74
2022/03/29 03:45:30;;;;;;;30.13;17.67;;;;;;;;;;4917315;29;20191;-77
2022/03/29 03:47:56;;;;;;;35.72;19.00;;;;;;;;;;4917302;29;20187;-76
2022/03/29 03:50:22;;;;;;;37.90;19.50;;;;;;;;;;4916792;29;20211;-75
2022/03/29 03:52:51;;;;;;;30.42;18.73;;;;;;;;;;4917013;29;20548;-75
2022/03/29 03:55:18;;;;;;;35.28;18.35;;;;;;;;;;4916961;29;20184;-74
2022/03/29 03:57:44;;;;;;;31.63;16.77;;;;;;;;;;4917338;29;20206;-78
2022/03/29 04:00:11;;;;;;;37.97;17.88;;;;;;;;;;4916860;29;20187;-78
2022/03/29 04:02:37;;;;;;;27.67;16.75;;;;;;;;;;4917176;29;20216;-75
2022/03/29 04:05:03;;;;;;;36.15;16.10;;;;;;;;;;4917406;29;20179;-77
2022/03/29 04:07:29;;;;;;;30.25;16.65;;;;;;;;;;4916997;29;20632;-74
2022/03/29 04:09:55;;;;;;;34.42;18.80;;;;;;;;;;4916999;29;20217;-77
2022/03/29 04:12:21;;;;;;;34.93;18.67;;;;;;;;;;4916483;29;20208;-77
2022/03/29 04:14:47;;;;;;;36.13;18.30;;;;;;;;;;4916912;29;20435;-78
2022/03/29 04:17:13;;;;;;;30.10;17.53;;;;;;;;;;4916769;29;20421;-75
2022/03/29 04:19:39;;;;;;;32.47;18.38;;;;;;;;;;4916939;29;20429;-78
2022/03/29 04:22:05;;;;;;;30.43;16.33;;;;;;;;;;4916367;29;20201;-78
2022/03/29 04:24:31;;;;;;;31.92;18.85;;;;;;;;;;4916786;29;20464;-78
2022/03/29 04:26:58;;;;;;;31.90;19.00;;;;;;;;;;4931453;29;20706;-78
2022/03/29 04:29:24;;;;;;;36.42;18.85;;;;;;;;;;4931249;29;20675;-78
2022/03/29 04:31:52;;;;;;;42.92;18.63;;;;;;;;;;4916674;29;20191;-76
2022/03/29 04:34:18;;;;;;;41.78;18.90;;;;;;;;;;4918750;29;20817;-77
2022/03/29 04:36:44;;;;;;;27.00;17.20;;;;;;;;;;4920608;29;20190;-76
2022/03/29 04:39:10;;;;;;;30.60;17.03;;;;;;;;;;4920511;29;20773;-78
2022/03/29 04:41:36;;;;;;;33.73;18.00;;;;;;;;;;4920001;29;20478;-77
2022/03/29 04:44:02;;;;;;;29.50;19.20;;;;;;;;;;4920388;29;20422;-76
2022/03/29 04:46:27;;;;;;;27.23;17.80;;;;;;;;;;4920409;29;20448;-75
2022/03/29 04:48:54;;;;;;;25.53;16.30;;;;;;;;;;4920393;29;20175;-75
2022/03/29 04:51:20;;;;;;;28.13;16.83;;;;;;;;;;4919740;29;20473;-75
2022/03/29 04:53:46;;;;;;;30.77;17.75;;;;;;;;;;4920194;29;20190;-76
2022/03/29 04:56:12;;;;;;;35.13;17.57;;;;;;;;;;4920159;29;20205;-76
2022/03/29 04:58:38;;;;;;;29.60;18.98;;;;;;;;;;4920163;29;20504;-78
2022/03/29 05:01:05;;;;;;;32.38;19.70;;;;;;;;;;4919724;29;20195;-76
2022/03/29 05:03:32;;;;;;;28.40;17.27;;;;;;;;;;4934640;29;20736;-76
2022/03/29 05:05:58;;;;;;;31.40;19.30;;;;;;;;;;4920032;29;20523;-78
2022/03/29 05:08:24;;;;;;;32.20;17.15;;;;;;;;;;4920022;29;20183;-78
2022/03/29 05:10:50;;;;;;;30.40;17.50;;;;;;;;;;4919500;29;20227;-78
2022/03/29 05:13:17;;;;;;;31.13;18.60;;;;;;;;;;4919934;29;20426;-75
2022/03/29 05:15:43;;;;;;;27.95;17.35;;;;;;;;;;4920031;29;20416;-78
2022/03/29 05:18:09;;;;;;;31.75;17.30;;;;;;;;;;4919855;29;20174;-79
2022/03/29 05:20:35;;;;;;;33.10;17.60;;;;;;;;;;4919591;29;20179;-78
2022/03/29 05:23:02;;;;;;;30.60;17.27;;;;;;;;;;4919625;29;20437;-77
2022/03/29 05:25:28;;;;;;;27.33;16.55;;;;;;;;;;4919975;29;20416;-76
2022/03/29 05:27:57;;;;;;;29.33;17.35;;;;;;;;;;4919684;29;20190;-78
2022/03/29 05:30:24;;;;;;;31.60;18.85;;;;;;;;;;4919542;29;20207;-75
2022/03/29 05:33:00;;;;;;;34.38;20.10;;;;;;;;;;4918266;29;20207;-75
2022/03/29 05:35:29;;;;;;;35.65;18.05;;;;;;;;;;4919670;29;20192;-76
2022/03/29 05:37:57;;;;;;;28.55;19.05;;;;;;;;;;4919519;29;20203;-78
2022/03/29 05:40:24;;;;;;;33.85;19.42;;;;;;;;;;4919125;29;20185;-77
2022/03/29 05:42:52;;;;;;;37.30;18.73;;;;;;;;;;4933988;29;20302;-76
2022/03/29 05:45:18;;;;;;;33.33;20.15;;;;;;;;;;4918790;29;20214;-78
2022/03/29 05:50:29;;;;;;;34.67;19.55;;;;;;;;;;4919031;29;20302;-76
2022/03/29 05:52:55;;;;;;;30.67;17.23;;;;;;;;;;4919262;29;20176;-75
2022/03/29 05:55:22;;;;;;;32.25;18.17;;;;;;;;;;4919124;29;20206;-78
2022/03/29 05:57:49;;;;;;;41.17;18.95;;;;;;;;;;4919121;29;20192;-75
2022/03/29 06:00:16;;;;;;;28.27;18.85;;;;;;;;;;4932996;29;20271;-75
2022/03/29 06:02:42;;;;;;;32.83;19.80;;;;;;;;;;4918952;29;20673;-76
2022/03/29 06:05:09;;;;;;;34.20;18.33;;;;;;;;;;4919118;29;20187;-76
2022/03/29 06:07:35;;;;;;;40.70;20.35;;;;;;;;;;4933602;29;20819;-76
2022/03/29 06:10:01;;;;;;;35.63;19.27;;;;;;;;;;4919145;29;20544;-73
2022/03/29 06:12:27;;;;;;;35.08;19.35;;;;;;;;;;4918393;29;20200;-76
2022/03/29 06:14:53;;;;;;;34.80;19.05;;;;;;;;;;4918892;29;20223;-75
2022/03/29 06:17:19;;;;;;;34.30;19.10;;;;;;;;;;4918951;29;20288;-76
2022/03/29 06:19:46;;;;;;;34.10;19.17;;;;;;;;;;4918854;29;20442;-77
2022/03/29 06:22:12;;;;;;;37.97;18.30;;;;;;;;;;4918277;29;20573;-78
2022/03/29 06:24:38;;;;;;;34.08;19.15;;;;;;;;;;4918498;29;20289;-75
2022/03/29 06:27:04;;;;;;;34.47;20.25;;;;;;;;;;4918768;29;20594;-78
2022/03/29 06:29:31;;;;;;;44.30;20.80;;;;;;;;;;4918601;29;20254;-77
2022/03/29 06:31:58;;;;;;;27.63;18.30;;;;;;;;;;4918214;29;20226;-74
2022/03/29 06:34:25;;;;;;;31.15;19.52;;;;;;;;;;4918568;29;20222;-74
2022/03/29 06:36:51;;;;;;;39.70;19.83;;;;;;;;;;4918560;29;20184;-74
2022/03/29 06:39:17;;;;;;;32.05;19.25;;;;;;;;;;4918482;29;20179;-78
2022/03/29 06:41:43;;;;;;;33.75;19.50;;;;;;;;;;4918079;29;20695;-76
2022/03/29 06:44:10;;;;;;;34.40;19.50;;;;;;;;;;4918274;29;20184;-78
2022/03/29 06:46:36;;;;;;;41.70;19.45;;;;;;;;;;4932572;29;20789;-77
2022/03/29 06:49:03;;;;;;;33.55;19.75;;;;;;;;;;4918121;29;20263;-76
2022/03/29 06:51:30;;;;;;;36.05;18.92;;;;;;;;;;4917805;29;20203;-74
2022/03/29 06:53:56;;;;;;;36.45;20.80;;;;;;;;;;4918177;29;20176;-76
2022/03/29 06:56:22;;;;;;;29.67;19.80;;;;;;;;;;4931620;29;20198;-75
2022/03/29 06:58:48;;;;;;;29.43;19.37;;;;;;;;;;4903910;29;20790;-76
2022/03/29 07:01:14;;;;;;;32.80;20.23;;;;;;;;;;4898598;29;20503;-75
2022/03/29 07:03:40;;;;;;;29.13;22.00;;;;;;;;;;4899085;29;20423;-76
2022/03/29 07:06:06;;;;;;;34.78;23.80;;;;;;;;;;4899067;29;20414;-77
2022/03/29 07:08:33;;;;;;;37.97;22.45;;;;;;;;;;4916491;29;20192;-76
2022/03/29 07:11:19;;;;;;;34.42;19.83;;;;;;;;;;4917319;29;20216;-74
2022/03/29 07:13:45;;;;;;;35.47;19.17;;;;;;;;;;4917739;29;20174;-75
2022/03/29 07:16:14;;;;;;;32.73;19.60;;;;;;;;;;4932304;29;20664;-76
2022/03/29 07:18:40;;;;;;;36.20;19.55;;;;;;;;;;4917764;29;20410;-77
2022/03/29 07:21:06;;;;;;;30.70;19.03;;;;;;;;;;4911973;29;20219;-75
2022/03/29 07:23:32;;;;;;;32.43;20.23;;;;;;;;;;4910735;29;20452;-73
2022/03/29 07:25:58;;;;;;;31.97;19.97;;;;;;;;;;4906703;29;20417;-76
2022/03/29 07:28:24;;;;;;;32.80;19.60;;;;;;;;;;4917555;29;20903;-73
2022/03/29 07:30:51;;;;;;;30.35;19.98;;;;;;;;;;4917000;29;20469;-76
2022/03/29 07:33:18;;;;;;;29.80;21.20;;;;;;;;;;4917498;29;20180;-75
2022/03/29 07:35:44;;;;;;;37.30;19.77;;;;;;;;;;4917504;29;20774;-76
2022/03/29 07:38:10;;;;;;;31.47;21.10;;;;;;;;;;4917355;29;20339;-73
2022/03/29 07:40:37;;;;;;;38.00;20.53;;;;;;;;;;4931437;29;20451;-75
2022/03/29 07:43:04;;;;;;;31.80;19.73;;;;;;;;;;4917373;29;20437;-75
2022/03/29 07:45:30;;;;;;;28.90;18.67;;;;;;;;;;4917427;29;20183;-74
2022/03/29 07:47:57;;;;;;;34.13;18.93;;;;;;;;;;4917513;29;20424;-72
2022/03/29 07:50:26;;;;;;;27.70;18.43;;;;;;;;;;4916875;29;20808;-76
2022/03/29 07:52:53;;;;;;;28.10;18.40;;;;;;;;;;4931631;29;20479;-74
2022/03/29 07:55:19;;;;;;;27.30;17.57;;;;;;;;;;4917115;29;20389;-74
2022/03/29 07:57:45;;;;;;;27.50;19.23;;;;;;;;;;4916990;29;20396;-75
2022/03/29 08:03:09;;;;;;;29.07;19.17;;;;;;;;;;4916596;29;20445;-75
2022/03/29 08:05:35;;;;;;;34.80;20.17;;;;;;;;;;4917022;29;20460;-77
2022/03/29 08:08:02;;;;;;;30.40;19.70;;;;;;;;;;4916707;29;20522;-77
2022/03/29 08:10:28;;;;;;;29.57;18.73;;;;;;;;;;4916708;29;20465;-75
2022/03/29 08:12:59;;;;;;;31.50;21.13;;;;;;;;;;4916989;29;20788;-75
2022/03/29 08:15:25;;;;;;;31.80;20.20;;;;;;;;;;4917035;29;20407;-75
2022/03/29 08:17:51;;;;;;;34.20;19.00;;;;;;;;;;4917012;29;20524;-75
2022/03/29 08:20:18;;;;;;;27.00;19.83;;;;;;;;;;4931142;29;20405;-77
2022/03/29 08:22:47;;;;;;;27.53;18.83;;;;;;;;;;4916832;29;20433;-77
2022/03/29 08:25:14;;;;;;;26.90;19.90;;;;;;;;;;4916660;29;20434;-75
2022/03/29 08:27:40;;;;;;;29.87;19.37;;;;;;;;;;4917106;29;20822;-77
2022/03/29 08:30:06;;;;;;;29.23;19.07;;;;;;;;;;4916643;29;20578;-77
2022/03/29 08:32:32;;;;;;;29.53;19.67;;;;;;;;;;4916397;29;20441;-77
2022/03/29 08:34:59;;;;;;;31.70;20.27;;;;;;;;;;4917262;29;20467;-78
2022/03/29 08:37:26;;;;;;;30.33;21.17;;;;;;;;;;4916707;29;20414;-76
2022/03/29 08:39:52;;;;;;;28.30;18.53;;;;;;;;;;4916946;29;20448;-77
2022/03/29 08:42:18;;;;;;;31.87;21.00;;;;;;;;;;4916279;29;21029;-74
2022/03/29 08:44:45;;;;;;;26.33;17.53;;;;;;;;;;4916658;29;20420;-75
2022/03/29 08:47:12;;;;;;;22.90;18.20;;;;;;;;;;4916610;29;20460;-77
2022/03/29 08:49:38;;;;;;;23.63;18.50;;;;;;;;;;4916564;29;20444;-75
2022/03/29 08:52:05;;;;;;;31.03;18.63;;;;;;;;;;4930863;29;20417;-76
2022/03/29 08:54:32;;;;;;;26.37;20.13;;;;;;;;;;4931132;29;20505;-74
2022/03/29 08:56:58;;;;;;;29.83;19.10;;;;;;;;;;4916525;29;20418;-77
2022/03/29 08:59:26;;;;;;;26.03;18.23;;;;;;;;;;4916405;29;20808;-76
2022/03/29 09:01:51;;;;;;;24.97;17.00;;;;;;;;;;4916170;29;20445;-76
2022/03/29 09:04:21;;;;;;;24.90;16.97;;;;;;;;;;4916483;29;20505;-75
2022/03/29 09:06:50;;;;;;;25.93;18.70;;;;;;;;;;4916558;29;20418;-77
2022/03/29 09:09:29;;;;;;;28.10;18.07;;;;;;;;;;4916363;29;20425;-78
2022/03/29 09:11:56;;;;;;;27.53;18.13;;;;;;;;;;4916390;29;20528;-75
2022/03/29 09:14:23;;;;;;;30.00;19.10;;;;;;;;;;4916764;29;20783;-75
2022/03/29 09:16:50;;;;;;;23.47;17.73;;;;;;;;;;4916566;29;20415;-76
2022/03/29 09:19:16;;;;;;;26.60;17.93;;;;;;;;;;4916620;29;20490;-76
2022/03/29 09:21:42;;;;;;;29.90;19.30;;;;;;;;;;4933911;29;21034;-77
2022/03/29 09:24:14;;;;;;;25.40;18.10;;;;;;;;;;4919543;29;20456;-75
2022/03/29 09:26:41;;;;;;;23.83;18.23;;;;;;;;;;4919873;29;20386;-77
2022/03/29 09:29:13;;;;;;;29.83;19.67;;;;;;;;;;4919891;29;20540;-77
2022/03/29 09:31:40;;;;;;;22.40;18.03;;;;;;;;;;4919245;29;20430;-77
2022/03/29 09:34:12;;;;;;;30.60;17.60;;;;;;;;;;4919730;29;20859;-76
2022/03/29 09:36:46;;;;;;;23.23;17.60;;;;;;;;;;4919644;29;20468;-77
2022/03/29 09:39:30;;;;;;;27.10;18.83;;;;;;;;;;4919593;29;20755;-76
2022/03/29 09:41:58;;;;;;;23.37;17.87;;;;;;;;;;4919141;29;20452;-75
2022/03/29 09:44:32;;;;;;;24.17;17.30;;;;;;;;;;4919422;29;20415;-77
2022/03/29 09:47:04;;;;;;;24.60;16.60;;;;;;;;;;4919407;29;20417;-78
2022/03/29 09:49:30;;;;;;;21.67;17.37;;;;;;;;;;4919385;29;20827;-80
2022/03/29 09:52:09;;;;;;;25.87;17.93;;;;;;;;;;4918804;29;21031;-76
2022/03/29 09:54:36;;;;;;;23.00;18.40;;;;;;;;;;4919450;29;20464;-78
2022/03/29 09:57:02;;;;;;;29.40;18.00;;;;;;;;;;4919225;29;20443;-78
2022/03/29 09:59:28;;;;;;;23.50;14.93;;;;;;;;;;4919246;29;20498;-78
2022/03/29 10:01:57;;;;;;;23.73;15.83;;;;;;;;;;4918407;29;20459;-77
2022/03/29 10:04:24;;;;;;;22.13;15.77;;;;;;;;;;4919032;29;20410;-74
2022/03/29 10:06:52;;;;;;;26.20;16.40;;;;;;;;;;4918933;29;20437;-78
2022/03/29 10:09:26;;;;;;;23.27;16.77;;;;;;;;;;4933537;29;20454;-76
2022/03/29 10:11:52;;;;;;;23.80;15.30;;;;;;;;;;4918524;29;20757;-76
2022/03/29 10:14:21;;;;;;;18.33;14.70;;;;;;;;;;4918965;29;20483;-75
2022/03/29 10:16:48;;;;;;;22.27;14.63;;;;;;;;;;4919097;29;20484;-79
2022/03/29 10:19:14;;;;;;;20.77;14.93;;;;;;;;;;4915770;29;20415;-81
2022/03/29 10:21:42;;;;;;;21.90;15.37;;;;;;;;;;4905743;29;20891;-78
2022/03/29 10:24:08;;;;;;;18.80;14.23;;;;;;;;;;4899591;29;20436;-78
2022/03/29 10:26:34;;;;;;;21.70;16.37;;;;;;;;;;4900150;29;20428;-80
2022/03/29 10:29:01;;;;;;;18.50;13.80;;;;;;;;;;4899898;29;20458;-76
2022/03/29 10:31:39;;;;;;;18.40;13.13;;;;;;;;;;4899144;29;20896;-78
2022/03/29 10:34:20;;;;;;;17.60;13.23;;;;;;;;;;4899447;29;20928;-76
2022/03/29 10:37:05;;;;;;;18.33;12.87;;;;;;;;;;4899711;29;20451;-77
2022/03/29 10:39:44;;;;;;;18.47;14.37;;;;;;;;;;4899854;29;20856;-77
2022/03/29 10:42:24;;;;;;;17.97;14.17;;;;;;;;;;4899103;29;20443;-80
2022/03/29 10:45:16;;;;;;;18.00;13.80;;;;;;;;;;4899576;29;20415;-76
2022/03/29 10:47:43;;;;;;;14.63;13.07;;;;;;;;;;4897886;29;20937;-79
2022/03/29 10:50:10;;;;;;;19.73;13.90;;;;;;;;;;4898989;29;20459;-78
2022/03/29 10:52:44;;;;;;;19.83;13.10;;;;;;;;;;4899109;29;20499;-80
2022/03/29 10:55:14;;;;;;;18.43;12.47;;;;;;;;;;4899371;29;20411;-79
2022/03/29 10:57:40;;;;;;;16.03;12.17;;;;;;;;;;4899261;29;20423;-77
2022/03/29 11:00:12;;;;;;;15.83;12.07;;;;;;;;;;4898994;29;20430;-77
2022/03/29 11:02:57;;;;;;;15.40;11.93;;;;;;;;;;4899049;29;20435;-77
2022/03/29 11:05:23;;;;;;;16.37;13.00;;;;;;;;;;4899152;29;20391;-78
2022/03/29 11:07:52;;;;;;;18.30;12.00;;;;;;;;;;4898981;29;20419;-78
2022/03/29 11:10:19;;;;;;;19.53;12.73;;;;;;;;;;4898518;29;20466;-79
2022/03/29 11:12:46;;;;;;;15.27;12.73;;;;;;;;;;4898935;29;20463;-78
2022/03/29 11:15:27;;;;;;;14.80;12.70;;;;;;;;;;4899063;29;20415;-79
2022/03/29 11:17:56;;;;;;;17.30;12.53;;;;;;;;;;4898961;29;20418;-80
2022/03/29 11:20:30;;;;;;;14.60;11.90;;;;;;;;;;4898441;29;20427;-79
2022/03/29 11:22:58;;;;;;;15.80;11.13;;;;;;;;;;4898812;29;20402;-76
2022/03/29 11:25:25;;;;;;;13.50;11.43;;;;;;;;;;4898755;29;20416;-76
2022/03/29 11:27:51;;;;;;;12.50;10.30;;;;;;;;;;4898911;29;20424;-80
2022/03/29 11:30:18;;;;;;;13.77;11.07;;;;;;;;;;4898497;29;20474;-78
2022/03/29 11:32:45;;;;;;;13.80;11.30;;;;;;;;;;4898517;29;20866;-77
2022/03/29 11:35:12;;;;;;;19.70;12.40;;;;;;;;;;4897590;29;20873;-79
2022/03/29 11:37:43;;;;;;;14.83;11.40;;;;;;;;;;4898677;29;20776;-75
2022/03/29 11:40:14;;;;;;;15.03;13.13;;;;;;;;;;4897389;29;20763;-76
2022/03/29 11:42:49;;;;;;;12.30;11.10;;;;;;;;;;4898025;29;20459;-75
2022/03/29 11:45:18;;;;;;;15.40;11.43;;;;;;;;;;4897193;29;20830;-79
2022/03/29 11:47:53;;;;;;;14.07;10.63;;;;;;;;;;4898691;29;20420;-78
2022/03/29 11:50:33;;;;;;;13.80;10.70;;;;;;;;;;4897953;29;20495;-80
2022/03/29 11:52:59;;;;;;;13.37;10.90;;;;;;;;;;4898399;29;20518;-78
2022/03/29 11:55:26;;;;;;;12.87;10.80;;;;;;;;;;4897213;29;20426;-77
2022/03/29 11:57:52;;;;;;;20.17;11.00;;;;;;;;;;4898255;29;20448;-79
2022/03/29 12:00:23;;;;;;;16.03;11.37;;;;;;;;;;4897778;29;20778;-76
2022/03/29 12:02:49;;;;;;;10.63;8.87;;;;;;;;;;4896753;29;20458;-77
2022/03/29 12:05:21;;;;;;;11.37;9.60;;;;;;;;;;4898144;29;20473;-76
2022/03/29 12:07:47;;;;;;;13.57;11.50;;;;;;;;;;4898072;29;20464;-75
2022/03/29 12:10:25;;;;;;;13.87;10.90;;;;;;;;;;4897607;29;20479;-78
2022/03/29 12:12:51;;;;;;;15.10;10.40;;;;;;;;;;4897904;29;20439;-77
2022/03/29 12:15:20;;;;;;;12.30;10.27;;;;;;;;;;4898001;29;20423;-80
2022/03/29 12:20:45;;;;;;;16.70;11.97;;;;;;;;;;4897670;29;20548;-75
2022/03/29 12:23:27;;;;;;;10.97;9.40;;;;;;;;;;4897823;29;20458;-75
2022/03/29 12:25:54;;;;;;;11.20;9.43;;;;;;;;;;4898050;29;20907;-76
2022/03/29 12:28:21;;;;;;;12.67;9.90;;;;;;;;;;4898109;29;20959;-76
2022/03/29 12:30:47;;;;;;;14.73;10.47;;;;;;;;;;4897515;29;20483;-76
2022/03/29 12:33:14;;;;;;;14.40;10.37;;;;;;;;;;4897664;29;20448;-79
2022/03/29 12:35:40;;;;;;;30.17;22.83;;;;;;;;;;4897915;29;20416;-76
2022/03/29 12:38:12;;;;;;;36.80;29.10;;;;;;;;;;4896653;29;20430;-75
2022/03/29 12:40:39;;;;;;;39.93;30.23;;;;;;;;;;4897556;29;20487;-79
2022/03/29 12:43:06;;;;;;;40.27;30.47;;;;;;;;;;4897655;29;20419;-76
2022/03/29 12:45:33;;;;;;;42.60;32.60;;;;;;;;;;4898041;29;20510;-77
2022/03/29 12:47:59;;;;;;;56.13;33.30;;;;;;;;;;4897870;29;20452;-78
2022/03/29 12:50:25;;;;;;;38.90;31.17;;;;;;;;;;4897497;29;20502;-78
2022/03/29 12:52:51;;;;;;;47.90;34.33;;;;;;;;;;4897797;29;20802;-76
2022/03/29 12:55:21;;;;;;;47.03;33.60;;;;;;;;;;4899485;29;20416;-78
2022/03/29 12:57:48;;;;;;;47.20;34.63;;;;;;;;;;4901755;29;20412;-75
2022/03/29 13:00:15;;;;;;;45.23;32.23;;;;;;;;;;4900997;29;20429;-77
2022/03/29 13:02:46;;;;;;;43.60;33.23;;;;;;;;;;4901213;29;20463;-78
2022/03/29 13:05:14;;;;;;;41.23;33.97;;;;;;;;;;4901147;29;20411;-78
2022/03/29 13:07:50;;;;;;;42.57;32.70;;;;;;;;;;4903983;29;20428;-78
2022/03/29 13:10:31;;;;;;;42.03;33.03;;;;;;;;;;4923377;29;20968;-79
2022/03/29 13:13:03;;;;;;;40.60;33.23;;;;;;;;;;4919288;29;20430;-76
2022/03/29 13:15:48;;;;;;;50.33;36.07;;;;;;;;;;4919822;29;20461;-73
2022/03/29 13:18:37;;;;;;;47.63;34.67;;;;;;;;;;4920006;29;20380;-75
2022/03/29 13:21:19;;;;;;;44.57;33.83;;;;;;;;;;4917871;29;20504;-79
2022/03/29 13:23:49;;;;;;;43.93;33.80;;;;;;;;;;4919780;29;20427;-78
2022/03/29 13:26:19;;;;;;;46.03;32.67;;;;;;;;;;4919682;29;20390;-75
2022/03/29 13:28:46;;;;;;;47.67;33.77;;;;;;;;;;4919722;29;20388;-78
2022/03/29 13:31:16;;;;;;;44.50;33.50;;;;;;;;;;4919097;29;20500;-77
2022/03/29 13:33:51;;;;;;;45.83;32.67;;;;;;;;;;4919801;29;20505;-76
2022/03/29 13:36:18;;;;;;;45.93;32.10;;;;;;;;;;4919854;29;20428;-76
2022/03/29 13:38:45;;;;;;;43.37;32.07;;;;;;;;;;4918380;29;20901;-82
2022/03/29 13:41:12;;;;;;;47.90;33.20;;;;;;;;;;4919033;29;20433;-76
2022/03/29 13:43:39;;;;;;;45.33;33.50;;;;;;;;;;4919323;29;20454;-79
2022/03/29 13:46:05;;;;;;;48.60;34.10;;;;;;;;;;4919430;29;20407;-76
2022/03/29 13:48:32;;;;;;;39.33;31.27;;;;;;;;;;4919452;29;20423;-79
2022/03/29 13:50:58;;;;;;;35.30;28.70;;;;;;;;;;4918862;29;20502;-77
2022/03/29 13:53:24;;;;;;;38.37;30.00;;;;;;;;;;4919079;29;20957;-78
2022/03/29 13:55:50;;;;;;;40.63;31.37;;;;;;;;;;4919094;29;20407;-79
2022/03/29 13:58:16;;;;;;;41.53;32.03;;;;;;;;;;4919260;29;20763;-77
2022/03/29 14:00:42;;;;;;;42.80;31.20;;;;;;;;;;4918671;29;20773;-76
2022/03/29 14:03:09;;;;;;;41.07;31.17;;;;;;;;;;4919004;29;20856;-79
2022/03/29 14:05:41;;;;;;;41.70;31.37;;;;;;;;;;4918498;29;20474;-76
2022/03/29 14:08:08;;;;;;;45.60;31.83;;;;;;;;;;4918985;29;20423;-80
2022/03/29 14:10:34;;;;;;;46.23;34.17;;;;;;;;;;4918495;29;20890;-76
2022/03/29 14:13:02;;;;;;;45.47;33.40;;;;;;;;;;4918797;29;20846;-76
2022/03/29 14:15:28;;;;;;;50.23;34.70;;;;;;;;;;4918784;29;20386;-78
2022/03/29 14:17:54;;;;;;;47.60;31.13;;;;;;;;;;4918776;29;20510;-78
2022/03/29 14:20:21;;;;;;;54.43;33.30;;;;;;;;;;4918430;29;20837;-77
2022/03/29 14:22:47;;;;;;;51.07;33.70;;;;;;;;;;4918794;29;20730;-79
2022/03/29 14:25:16;;;;;;;48.30;32.37;;;;;;;;;;4918897;29;20925;-77
2022/03/29 14:27:42;;;;;;;51.33;34.30;;;;;;;;;;4918737;29;20400;-79
2022/03/29 14:30:09;;;;;;;49.37;32.90;;;;;;;;;;4918346;29;20437;-78